Time;durP1;ratioP1;P1;durP2;ratioP2;P2;SDS_P1;SDS_P2;PMS_P1;PMS_P2;Temp;Humidity;BMP_temperature;BMP_pressure;BME280_temperature;BME280_humidity;BME280_pressure;Samples;Min_cycle;Max_cycle;Signal;HPM_P1;HPM_P2
2020/12/26 05:49:50;;;;;;;;;;;;;;;11.87;49.37;100526.94;3328843;26;19936;-79
2020/12/26 05:52:16;;;;;;;;;;;;;;;11.85;49.63;100528.78;4995085;28;19922;-79
2020/12/26 05:54:51;;;;;;;;;;;;;;;11.83;49.60;100533.28;4992844;28;19929;-77
2020/12/26 05:57:17;;;;;;;;;;;;;;;11.81;49.40;100532.47;4995611;28;19991;-81
2020/12/26 05:59:50;;;;;;;;;;;;;;;11.75;48.80;100538.84;4995514;28;19934;-79
2020/12/26 06:02:16;;;;;;;;;;;;;;;11.77;50.06;100537.00;4993834;28;19921;-79
2020/12/26 06:04:45;;;;;;;;;;;;;;;11.81;49.85;100543.97;4997932;28;19933;-78
2020/12/26 06:07:10;;;;;;;;;;;;;;;11.93;49.64;100536.50;4996868;28;20012;-81
2020/12/26 06:09:36;;;;;;;;;;;;;;;12.00;49.65;100538.03;4996540;28;20016;-81
2020/12/26 06:12:02;;;;;;;;;;;;;;;12.18;50.52;100541.78;4997999;28;19996;-79
2020/12/26 06:14:29;;;;;;;;;;;;;;;12.28;47.98;100537.84;4998196;28;20484;-82
2020/12/26 06:16:56;;;;;;;;;;;;;;;12.20;48.82;100533.75;4998698;28;20048;-82
2020/12/26 06:19:27;;;;;;;;;;;;;;;12.24;49.18;100522.06;4998822;28;19992;-82
2020/12/26 06:21:53;;;;;;;;;;;;;;;12.22;47.90;100527.47;4998266;28;20212;-81
2020/12/26 06:24:19;;;;;;;;;;;;;;;12.18;48.31;100532.00;4997525;28;19921;-78
2020/12/26 06:26:48;;;;;;;;;;;;;;;12.18;48.66;100531.16;4998795;28;19928;-80
2020/12/26 06:29:20;;;;;;;;;;;;;;;12.19;48.49;100527.56;4998387;28;19945;-81
2020/12/26 06:31:45;;;;;;;;;;;;;;;12.19;49.09;100532.91;4997334;28;20224;-82
2020/12/26 06:34:12;;;;;;;;;;;;;;;12.19;48.87;100530.22;4997392;28;20012;-80
2020/12/26 06:36:39;;;;;;;;;;;;;;;12.26;49.05;100522.88;4997063;28;20028;-78
2020/12/26 06:39:23;;;;;;;;;;;;;;;12.40;49.16;100525.88;4993014;28;19936;-79
2020/12/26 06:42:08;;;;;;;;;;;;;;;12.51;48.29;100529.00;4995184;28;19932;-81
2020/12/26 06:44:34;;;;;;;;;;;;;;;12.41;48.34;100522.28;4995903;28;19980;-79
2020/12/26 06:47:00;;;;;;;;;;;;;;;12.42;48.57;100524.03;4996753;28;20504;-81
2020/12/26 06:49:25;;;;;;;;;;;;;;;12.43;48.18;100536.41;4995288;28;19930;-81
2020/12/26 06:51:51;;;;;;;;;;;;;;;12.35;48.88;100530.53;4995527;28;19929;-79
2020/12/26 06:54:35;;;;;;;;;;;;;;;12.40;49.05;100512.59;4995201;28;19953;-78
2020/12/26 06:57:00;;;;;;;;;;;;;;;12.44;48.53;100513.34;4995298;28;19937;-79
2020/12/26 06:59:30;;;;;;;;;;;;;;;12.41;47.88;100516.97;4995322;28;19922;-82
2020/12/26 07:02:02;;;;;;;;;;;;;;;12.38;48.73;100514.47;4996142;28;19980;-78
2020/12/26 07:04:27;;;;;;;;;;;;;;;12.43;48.83;100515.13;4994042;28;19922;-78
2020/12/26 07:06:53;;;;;;;;;;;;;;;12.43;48.70;100509.81;4996179;28;19929;-80
2020/12/26 07:09:38;;;;;;;;;;;;;;;12.42;48.57;100513.38;4997309;28;20289;-80
2020/12/26 07:12:05;;;;;;;;;;;;;;;12.40;48.53;100514.38;4996111;28;19930;-78
2020/12/26 07:14:31;;;;;;;;;;;;;;;12.33;48.24;100508.44;4998954;28;19921;-82
2020/12/26 07:17:19;;;;;;;;;;;;;;;12.23;47.71;100513.22;4999964;28;19925;-82
2020/12/26 07:19:45;;;;;;;;;;;;;;;12.23;48.95;100517.69;4988363;28;19932;-78
2020/12/26 07:22:16;;;;;;;;;;;;;;;12.26;47.65;100522.88;5000396;28;19977;-80
2020/12/26 07:24:46;;;;;;;;;;;;;;;12.23;48.05;100529.19;5000382;28;20296;-81
2020/12/26 07:27:12;;;;;;;;;;;;;;;12.27;48.55;100535.22;4996986;28;19926;-79
2020/12/26 07:29:46;;;;;;;;;;;;;;;12.32;48.48;100530.63;4998729;28;19930;-81
2020/12/26 07:32:31;;;;;;;;;;;;;;;12.42;48.36;100539.97;4998348;28;20293;-80
2020/12/26 07:34:57;;;;;;;;;;;;;;;12.43;48.33;100546.13;4999123;28;19932;-79
2020/12/26 07:37:22;;;;;;;;;;;;;;;12.43;47.74;100551.47;4998027;28;20285;-81
2020/12/26 07:39:47;;;;;;;;;;;;;;;12.29;47.88;100554.66;4998686;28;20354;-77
2020/12/26 07:42:22;;;;;;;;;;;;;;;12.27;47.98;100546.75;4999102;28;19933;-78
2020/12/26 07:44:47;;;;;;;;;;;;;;;12.28;48.72;100547.59;4999888;28;20328;-79
2020/12/26 07:47:13;;;;;;;;;;;;;;;12.38;48.86;100549.00;4998284;28;20089;-81
2020/12/26 07:49:38;;;;;;;;;;;;;;;12.44;48.67;100550.53;4999123;28;19922;-80
2020/12/26 07:52:07;;;;;;;;;;;;;;;12.58;48.18;100542.03;4999516;28;19937;-80
